Albany, New York
Traffic Map
Current Weather Conditions
Albany, New York
Overcast
Overcast
11°
Feels Like: 11°
Wind Chill: 11° Ceiling: 2500
Heat Index: 11° Visibility: 10mi
Dew Point: Wind: 5mph
Humidity: 77% Direction: 180° (S)
Pressure: 29.85in Gusts: 0mph
Raw Report DataKALB 040151Z 18004KT 10SM BKN025 BKN035 OVC041 11/07 A2985 RMK AO2 RAE49 SLP109 P0000 T01060067
Traffic Incident Summary
Active as of:
Severity:
Category:
InformationThere was an issue retrieving the traffic information for this location. Please try a different location or try again shortly.
Advertisements
Track Severe Weather on mobile